sensor_id;sensor_type;location;lat;lon;timestamp;temperature;humidity
790;DHT22;378;48.844;9.156;2023-04-01T00:01:11;8.40;99.90
790;DHT22;378;48.844;9.156;2023-04-01T00:03:41;8.40;99.90
790;DHT22;378;48.844;9.156;2023-04-01T00:06:09;8.40;99.90
790;DHT22;378;48.844;9.156;2023-04-01T00:08:37;8.40;99.90
790;DHT22;378;48.844;9.156;2023-04-01T00:11:04;8.40;99.90
790;DHT22;378;48.844;9.156;2023-04-01T00:13:31;8.50;99.90
790;DHT22;378;48.844;9.156;2023-04-01T00:15:58;8.50;99.90
790;DHT22;378;48.844;9.156;2023-04-01T00:18:25;8.60;99.90
790;DHT22;378;48.844;9.156;2023-04-01T00:20:53;8.50;99.90
790;DHT22;378;48.844;9.156;2023-04-01T00:23:20;8.50;99.90
790;DHT22;378;48.844;9.156;2023-04-01T00:25:48;8.60;99.90
790;DHT22;378;48.844;9.156;2023-04-01T00:28:15;8.60;99.90
790;DHT22;378;48.844;9.156;2023-04-01T00:30:42;8.60;99.90
790;DHT22;378;48.844;9.156;2023-04-01T00:33:09;8.60;99.90
790;DHT22;378;48.844;9.156;2023-04-01T00:35:36;8.60;99.90
790;DHT22;378;48.844;9.156;2023-04-01T00:38:04;8.50;99.90
790;DHT22;378;48.844;9.156;2023-04-01T00:40:33;8.50;99.90
790;DHT22;378;48.844;9.156;2023-04-01T00:43:00;8.50;99.90
790;DHT22;378;48.844;9.156;2023-04-01T00:45:31;8.50;99.90
790;DHT22;378;48.844;9.156;2023-04-01T00:48:00;8.50;99.90
790;DHT22;378;48.844;9.156;2023-04-01T00:50:29;8.60;99.90
790;DHT22;378;48.844;9.156;2023-04-01T00:52:57;8.70;99.90
790;DHT22;378;48.844;9.156;2023-04-01T00:55:28;8.70;99.90
790;DHT22;378;48.844;9.156;2023-04-01T00:57:57;8.60;99.90
790;DHT22;378;48.844;9.156;2023-04-01T01:00:26;8.60;99.90
790;DHT22;378;48.844;9.156;2023-04-01T01:02:53;8.50;99.90
790;DHT22;378;48.844;9.156;2023-04-01T01:05:26;8.50;99.90
790;DHT22;378;48.844;9.156;2023-04-01T01:08:02;8.50;99.90
790;DHT22;378;48.844;9.156;2023-04-01T01:10:34;8.60;99.90
790;DHT22;378;48.844;9.156;2023-04-01T01:13:10;8.70;99.90
790;DHT22;378;48.844;9.156;2023-04-01T01:15:41;8.60;99.90
790;DHT22;378;48.844;9.156;2023-04-01T01:18:16;8.60;99.90
790;DHT22;378;48.844;9.156;2023-04-01T01:26:59;8.60;99.90
790;DHT22;378;48.844;9.156;2023-04-01T01:29:57;8.60;99.90
790;DHT22;378;48.844;9.156;2023-04-01T01:32:44;8.60;99.90
790;DHT22;378;48.844;9.156;2023-04-01T01:35:21;8.60;99.90
790;DHT22;378;48.844;9.156;2023-04-01T01:37:52;8.60;99.90
790;DHT22;378;48.844;9.156;2023-04-01T01:40:20;8.60;99.90
790;DHT22;378;48.844;9.156;2023-04-01T01:42:51;8.60;99.90
790;DHT22;378;48.844;9.156;2023-04-01T01:45:21;8.60;99.90
790;DHT22;378;48.844;9.156;2023-04-01T01:47:50;8.60;99.90
790;DHT22;378;48.844;9.156;2023-04-01T01:50:19;8.60;99.90
790;DHT22;378;48.844;9.156;2023-04-01T01:52:47;8.50;99.90
790;DHT22;378;48.844;9.156;2023-04-01T01:55:27;8.30;99.90
790;DHT22;378;48.844;9.156;2023-04-01T01:57:56;8.30;99.90
790;DHT22;378;48.844;9.156;2023-04-01T02:00:24;8.30;99.90
790;DHT22;378;48.844;9.156;2023-04-01T02:02:51;8.20;99.90
790;DHT22;378;48.844;9.156;2023-04-01T02:05:22;8.20;99.90
790;DHT22;378;48.844;9.156;2023-04-01T02:07:55;8.10;99.90
790;DHT22;378;48.844;9.156;2023-04-01T02:10:25;8.10;99.90
790;DHT22;378;48.844;9.156;2023-04-01T02:12:58;8.10;99.90
790;DHT22;378;48.844;9.156;2023-04-01T02:15:27;8.10;99.90
790;DHT22;378;48.844;9.156;2023-04-01T02:17:56;8.10;99.90
790;DHT22;378;48.844;9.156;2023-04-01T02:20:25;8.10;99.90
790;DHT22;378;48.844;9.156;2023-04-01T02:22:56;8.00;99.90
790;DHT22;378;48.844;9.156;2023-04-01T02:25:28;8.00;99.90
790;DHT22;378;48.844;9.156;2023-04-01T02:27:57;8.00;99.90
790;DHT22;378;48.844;9.156;2023-04-01T02:30:25;7.90;99.90
790;DHT22;378;48.844;9.156;2023-04-01T02:32:53;7.90;99.90
790;DHT22;378;48.844;9.156;2023-04-01T02:35:22;7.90;99.90
790;DHT22;378;48.844;9.156;2023-04-01T02:37:53;7.90;99.90
790;DHT22;378;48.844;9.156;2023-04-01T02:40:20;7.80;99.90
790;DHT22;378;48.844;9.156;2023-04-01T02:42:47;7.80;99.90
790;DHT22;378;48.844;9.156;2023-04-01T02:45:15;7.80;99.90
790;DHT22;378;48.844;9.156;2023-04-01T02:47:41;7.80;99.90
790;DHT22;378;48.844;9.156;2023-04-01T02:50:09;7.80;99.90
790;DHT22;378;48.844;9.156;2023-04-01T02:52:36;7.80;99.90
790;DHT22;378;48.844;9.156;2023-04-01T02:55:05;7.80;99.90
790;DHT22;378;48.844;9.156;2023-04-01T02:57:32;7.80;99.90
790;DHT22;378;48.844;9.156;2023-04-01T02:59:59;7.80;99.90
790;DHT22;378;48.844;9.156;2023-04-01T03:02:25;7.80;99.90
790;DHT22;378;48.844;9.156;2023-04-01T03:04:52;7.80;99.90
790;DHT22;378;48.844;9.156;2023-04-01T03:07:19;7.80;99.90
790;DHT22;378;48.844;9.156;2023-04-01T03:09:46;7.80;99.90
790;DHT22;378;48.844;9.156;2023-04-01T03:12:14;7.80;99.90
790;DHT22;378;48.844;9.156;2023-04-01T03:14:41;7.90;99.90
790;DHT22;378;48.844;9.156;2023-04-01T03:17:08;7.90;99.90
790;DHT22;378;48.844;9.156;2023-04-01T03:19:34;7.80;99.90
790;DHT22;378;48.844;9.156;2023-04-01T03:22:01;7.90;99.90
790;DHT22;378;48.844;9.156;2023-04-01T03:24:28;7.90;99.90
790;DHT22;378;48.844;9.156;2023-04-01T03:26:55;7.80;99.90
790;DHT22;378;48.844;9.156;2023-04-01T03:29:23;7.80;99.90
790;DHT22;378;48.844;9.156;2023-04-01T03:31:50;7.80;99.90
790;DHT22;378;48.844;9.156;2023-04-01T03:34:17;7.70;99.90
790;DHT22;378;48.844;9.156;2023-04-01T03:36:44;7.70;99.90
790;DHT22;378;48.844;9.156;2023-04-01T03:39:10;7.70;99.90
790;DHT22;378;48.844;9.156;2023-04-01T03:41:37;7.60;99.90
790;DHT22;378;48.844;9.156;2023-04-01T03:44:04;7.70;99.90
790;DHT22;378;48.844;9.156;2023-04-01T03:46:33;7.70;99.90
790;DHT22;378;48.844;9.156;2023-04-01T03:48:59;7.70;99.90
790;DHT22;378;48.844;9.156;2023-04-01T03:51:26;7.70;99.90
790;DHT22;378;48.844;9.156;2023-04-01T03:53:53;7.70;99.90
790;DHT22;378;48.844;9.156;2023-04-01T03:56:20;7.60;99.90
790;DHT22;378;48.844;9.156;2023-04-01T03:58:47;7.60;99.90
790;DHT22;378;48.844;9.156;2023-04-01T04:01:18;7.60;99.90
790;DHT22;378;48.844;9.156;2023-04-01T04:03:48;7.60;99.90
790;DHT22;378;48.844;9.156;2023-04-01T04:06:17;7.70;99.90
790;DHT22;378;48.844;9.156;2023-04-01T04:08:44;7.70;99.90
790;DHT22;378;48.844;9.156;2023-04-01T04:11:11;7.70;99.90
790;DHT22;378;48.844;9.156;2023-04-01T04:13:38;7.70;99.90
790;DHT22;378;48.844;9.156;2023-04-01T04:16:05;7.80;99.90
790;DHT22;378;48.844;9.156;2023-04-01T04:18:32;7.80;99.90
790;DHT22;378;48.844;9.156;2023-04-01T04:21:00;7.90;99.90
790;DHT22;378;48.844;9.156;2023-04-01T04:23:27;8.00;99.90
790;DHT22;378;48.844;9.156;2023-04-01T04:25:56;8.00;99.90
790;DHT22;378;48.844;9.156;2023-04-01T04:28:23;8.10;99.90
790;DHT22;378;48.844;9.156;2023-04-01T04:30:50;8.10;99.90
790;DHT22;378;48.844;9.156;2023-04-01T04:33:17;8.00;99.90
790;DHT22;378;48.844;9.156;2023-04-01T04:35:44;8.00;99.90
790;DHT22;378;48.844;9.156;2023-04-01T04:38:13;7.90;99.90
790;DHT22;378;48.844;9.156;2023-04-01T04:40:41;7.90;99.90
790;DHT22;378;48.844;9.156;2023-04-01T04:43:10;7.90;99.90
790;DHT22;378;48.844;9.156;2023-04-01T04:45:37;7.90;99.90
790;DHT22;378;48.844;9.156;2023-04-01T04:48:05;7.90;99.90
790;DHT22;378;48.844;9.156;2023-04-01T04:50:33;7.90;99.90
790;DHT22;378;48.844;9.156;2023-04-01T04:53:00;7.90;99.90
790;DHT22;378;48.844;9.156;2023-04-01T04:55:28;8.00;99.90
790;DHT22;378;48.844;9.156;2023-04-01T04:57:54;8.00;99.90
790;DHT22;378;48.844;9.156;2023-04-01T05:00:21;8.00;99.90
790;DHT22;378;48.844;9.156;2023-04-01T05:02:48;7.90;99.90
790;DHT22;378;48.844;9.156;2023-04-01T05:05:15;7.90;99.90
790;DHT22;378;48.844;9.156;2023-04-01T05:07:42;7.80;99.90
790;DHT22;378;48.844;9.156;2023-04-01T05:10:09;7.80;99.90
790;DHT22;378;48.844;9.156;2023-04-01T05:12:37;7.80;99.90
790;DHT22;378;48.844;9.156;2023-04-01T05:15:05;7.90;99.90
790;DHT22;378;48.844;9.156;2023-04-01T05:17:32;7.90;99.90
790;DHT22;378;48.844;9.156;2023-04-01T05:19:59;7.90;99.90
790;DHT22;378;48.844;9.156;2023-04-01T05:22:25;7.90;99.90
790;DHT22;378;48.844;9.156;2023-04-01T05:24:52;7.80;99.90
790;DHT22;378;48.844;9.156;2023-04-01T05:27:19;7.80;99.90
790;DHT22;378;48.844;9.156;2023-04-01T05:29:48;7.70;99.90
790;DHT22;378;48.844;9.156;2023-04-01T05:32:15;7.80;99.90
790;DHT22;378;48.844;9.156;2023-04-01T05:34:42;7.80;99.90
790;DHT22;378;48.844;9.156;2023-04-01T05:37:09;7.90;99.90
790;DHT22;378;48.844;9.156;2023-04-01T05:39:36;8.00;99.90
790;DHT22;378;48.844;9.156;2023-04-01T05:42:05;8.10;99.90
790;DHT22;378;48.844;9.156;2023-04-01T05:44:32;8.20;99.90
790;DHT22;378;48.844;9.156;2023-04-01T05:47:01;8.20;99.90
790;DHT22;378;48.844;9.156;2023-04-01T05:49:28;8.30;99.90
790;DHT22;378;48.844;9.156;2023-04-01T05:51:55;8.40;99.90
790;DHT22;378;48.844;9.156;2023-04-01T05:54:22;8.50;99.90
790;DHT22;378;48.844;9.156;2023-04-01T05:56:49;8.60;99.90
790;DHT22;378;48.844;9.156;2023-04-01T05:59:16;8.70;99.90
790;DHT22;378;48.844;9.156;2023-04-01T06:01:43;8.70;99.90
790;DHT22;378;48.844;9.156;2023-04-01T06:04:13;8.80;99.90
790;DHT22;378;48.844;9.156;2023-04-01T06:06:41;8.90;99.90
790;DHT22;378;48.844;9.156;2023-04-01T06:09:14;9.10;99.90
790;DHT22;378;48.844;9.156;2023-04-01T06:11:51;9.30;99.90
790;DHT22;378;48.844;9.156;2023-04-01T06:14:27;9.50;99.90
790;DHT22;378;48.844;9.156;2023-04-01T06:17:16;9.70;99.90
790;DHT22;378;48.844;9.156;2023-04-01T06:19:51;9.50;99.90
790;DHT22;378;48.844;9.156;2023-04-01T06:22:41;9.40;99.90
790;DHT22;378;48.844;9.156;2023-04-01T06:25:30;9.50;99.90
790;DHT22;378;48.844;9.156;2023-04-01T06:31:20;9.50;99.90
790;DHT22;378;48.844;9.156;2023-04-01T06:34:02;9.70;99.90
790;DHT22;378;48.844;9.156;2023-04-01T06:36:55;9.90;99.90
790;DHT22;378;48.844;9.156;2023-04-01T06:39:38;9.80;99.90
790;DHT22;378;48.844;9.156;2023-04-01T06:42:28;9.70;99.90
790;DHT22;378;48.844;9.156;2023-04-01T06:45:07;9.60;99.90
790;DHT22;378;48.844;9.156;2023-04-01T06:47:46;9.50;99.90
790;DHT22;378;48.844;9.156;2023-04-01T06:50:23;9.40;99.90
790;DHT22;378;48.844;9.156;2023-04-01T06:52:58;9.40;99.90
790;DHT22;378;48.844;9.156;2023-04-01T06:55:32;9.40;99.90
790;DHT22;378;48.844;9.156;2023-04-01T06:58:05;9.50;99.90
790;DHT22;378;48.844;9.156;2023-04-01T07:00:35;9.50;99.90
790;DHT22;378;48.844;9.156;2023-04-01T07:03:08;9.50;99.90
790;DHT22;378;48.844;9.156;2023-04-01T07:05:37;9.70;99.90
790;DHT22;378;48.844;9.156;2023-04-01T07:08:10;9.70;99.90
790;DHT22;378;48.844;9.156;2023-04-01T07:10:43;9.70;99.90
790;DHT22;378;48.844;9.156;2023-04-01T07:13:17;9.70;99.90
790;DHT22;378;48.844;9.156;2023-04-01T07:15:51;9.80;99.90
790;DHT22;378;48.844;9.156;2023-04-01T07:18:25;9.60;99.90
790;DHT22;378;48.844;9.156;2023-04-01T07:20:55;9.70;99.90
790;DHT22;378;48.844;9.156;2023-04-01T07:23:27;9.80;99.90
790;DHT22;378;48.844;9.156;2023-04-01T07:25:59;9.70;99.90
790;DHT22;378;48.844;9.156;2023-04-01T07:28:30;9.60;99.90
790;DHT22;378;48.844;9.156;2023-04-01T07:31:09;9.60;99.90
790;DHT22;378;48.844;9.156;2023-04-01T07:33:43;9.60;99.90
790;DHT22;378;48.844;9.156;2023-04-01T07:36:17;9.50;99.90
790;DHT22;378;48.844;9.156;2023-04-01T07:38:58;9.40;99.90
790;DHT22;378;48.844;9.156;2023-04-01T07:41:36;9.30;99.90
790;DHT22;378;48.844;9.156;2023-04-01T07:44:12;9.40;99.90
790;DHT22;378;48.844;9.156;2023-04-01T07:46:55;9.40;99.90
790;DHT22;378;48.844;9.156;2023-04-01T07:49:29;9.50;99.90
790;DHT22;378;48.844;9.156;2023-04-01T07:52:01;9.50;99.90
790;DHT22;378;48.844;9.156;2023-04-01T07:54:38;9.70;99.90
790;DHT22;378;48.844;9.156;2023-04-01T07:57:12;9.80;99.90
790;DHT22;378;48.844;9.156;2023-04-01T07:59:48;9.90;99.90
790;DHT22;378;48.844;9.156;2023-04-01T08:02:31;10.00;99.90
790;DHT22;378;48.844;9.156;2023-04-01T08:05:09;10.10;99.90
790;DHT22;378;48.844;9.156;2023-04-01T08:10:15;10.10;99.90
790;DHT22;378;48.844;9.156;2023-04-01T08:12:51;10.10;99.90
790;DHT22;378;48.844;9.156;2023-04-01T08:15:26;10.20;99.90
790;DHT22;378;48.844;9.156;2023-04-01T08:18:02;10.30;99.90
790;DHT22;378;48.844;9.156;2023-04-01T08:20:34;10.20;99.90
790;DHT22;378;48.844;9.156;2023-04-01T08:23:07;10.10;99.90
790;DHT22;378;48.844;9.156;2023-04-01T08:25:42;10.20;99.90
790;DHT22;378;48.844;9.156;2023-04-01T08:28:15;10.10;99.90
790;DHT22;378;48.844;9.156;2023-04-01T08:30:45;10.20;99.90
790;DHT22;378;48.844;9.156;2023-04-01T08:33:17;10.30;99.90
790;DHT22;378;48.844;9.156;2023-04-01T08:35:51;10.10;99.90
790;DHT22;378;48.844;9.156;2023-04-01T08:38:23;9.90;99.90
790;DHT22;378;48.844;9.156;2023-04-01T08:41:25;9.70;99.90
790;DHT22;378;48.844;9.156;2023-04-01T08:44:10;9.30;99.90
790;DHT22;378;48.844;9.156;2023-04-01T08:47:09;9.00;99.90
790;DHT22;378;48.844;9.156;2023-04-01T08:49:56;8.70;99.90
790;DHT22;378;48.844;9.156;2023-04-01T08:52:34;8.50;99.90
790;DHT22;378;48.844;9.156;2023-04-01T08:55:31;8.40;99.90
790;DHT22;378;48.844;9.156;2023-04-01T09:01:34;8.30;99.90
790;DHT22;378;48.844;9.156;2023-04-01T09:04:22;8.30;99.90
790;DHT22;378;48.844;9.156;2023-04-01T09:06:58;8.30;99.90
790;DHT22;378;48.844;9.156;2023-04-01T09:12:44;8.30;99.90
790;DHT22;378;48.844;9.156;2023-04-01T09:15:45;8.30;99.90
790;DHT22;378;48.844;9.156;2023-04-01T09:18:32;8.30;99.90
790;DHT22;378;48.844;9.156;2023-04-01T09:21:18;8.50;99.90
790;DHT22;378;48.844;9.156;2023-04-01T09:24:21;8.60;99.90
790;DHT22;378;48.844;9.156;2023-04-01T09:27:02;8.80;99.90
790;DHT22;378;48.844;9.156;2023-04-01T09:29:51;9.10;99.90
790;DHT22;378;48.844;9.156;2023-04-01T09:32:41;9.50;99.90
790;DHT22;378;48.844;9.156;2023-04-01T09:35:22;9.70;99.90
790;DHT22;378;48.844;9.156;2023-04-01T09:37:57;9.80;99.90
790;DHT22;378;48.844;9.156;2023-04-01T09:40:33;9.60;99.90
790;DHT22;378;48.844;9.156;2023-04-01T09:43:25;9.50;99.90
790;DHT22;378;48.844;9.156;2023-04-01T09:46:04;9.40;99.90
790;DHT22;378;48.844;9.156;2023-04-01T09:51:58;9.30;99.90
790;DHT22;378;48.844;9.156;2023-04-01T09:54:45;9.10;99.90
790;DHT22;378;48.844;9.156;2023-04-01T09:57:39;9.40;99.90
790;DHT22;378;48.844;9.156;2023-04-01T10:00:27;9.40;99.90
790;DHT22;378;48.844;9.156;2023-04-01T10:09:30;9.50;99.90
790;DHT22;378;48.844;9.156;2023-04-01T10:12:40;9.50;99.90
790;DHT22;378;48.844;9.156;2023-04-01T10:19:01;9.80;99.90
790;DHT22;378;48.844;9.156;2023-04-01T10:24:57;10.70;99.90
790;DHT22;378;48.844;9.156;2023-04-01T10:27:55;11.00;99.90
790;DHT22;378;48.844;9.156;2023-04-01T10:30:51;11.10;99.90
790;DHT22;378;48.844;9.156;2023-04-01T10:33:38;11.20;99.90
790;DHT22;378;48.844;9.156;2023-04-01T10:36:41;11.10;99.90
790;DHT22;378;48.844;9.156;2023-04-01T10:49:07;9.80;99.90
790;DHT22;378;48.844;9.156;2023-04-01T10:55:04;10.10;99.90
790;DHT22;378;48.844;9.156;2023-04-01T11:01:14;10.20;99.90
790;DHT22;378;48.844;9.156;2023-04-01T11:04:09;10.30;99.90
790;DHT22;378;48.844;9.156;2023-04-01T11:07:12;10.40;99.90
790;DHT22;378;48.844;9.156;2023-04-01T11:16:39;10.70;99.90
790;DHT22;378;48.844;9.156;2023-04-01T11:19:35;10.90;99.90
790;DHT22;378;48.844;9.156;2023-04-01T11:25:10;11.40;99.90
790;DHT22;378;48.844;9.156;2023-04-01T11:27:53;11.60;99.90
790;DHT22;378;48.844;9.156;2023-04-01T11:30:49;11.80;99.90
790;DHT22;378;48.844;9.156;2023-04-01T11:33:26;11.80;99.90
790;DHT22;378;48.844;9.156;2023-04-01T11:36:25;11.70;99.90
790;DHT22;378;48.844;9.156;2023-04-01T11:39:15;11.70;99.90
790;DHT22;378;48.844;9.156;2023-04-01T11:41:53;11.70;99.90
790;DHT22;378;48.844;9.156;2023-04-01T11:44:25;11.70;99.90
790;DHT22;378;48.844;9.156;2023-04-01T11:47:04;11.90;99.90
790;DHT22;378;48.844;9.156;2023-04-01T11:49:47;12.10;99.90
790;DHT22;378;48.844;9.156;2023-04-01T11:52:25;12.10;99.90
790;DHT22;378;48.844;9.156;2023-04-01T11:55:15;12.00;99.90
790;DHT22;378;48.844;9.156;2023-04-01T11:58:12;11.90;99.90
790;DHT22;378;48.844;9.156;2023-04-01T12:00:53;11.50;99.90
790;DHT22;378;48.844;9.156;2023-04-01T12:03:55;11.10;99.90
790;DHT22;378;48.844;9.156;2023-04-01T12:06:34;11.00;99.90
790;DHT22;378;48.844;9.156;2023-04-01T12:09:10;11.00;99.90
790;DHT22;378;48.844;9.156;2023-04-01T12:11:45;11.00;99.90
790;DHT22;378;48.844;9.156;2023-04-01T12:14:19;11.20;99.90
790;DHT22;378;48.844;9.156;2023-04-01T12:16:58;11.20;99.90
790;DHT22;378;48.844;9.156;2023-04-01T12:19:32;11.30;99.90
790;DHT22;378;48.844;9.156;2023-04-01T12:22:19;11.30;99.90
790;DHT22;378;48.844;9.156;2023-04-01T12:24:53;11.30;99.90
790;DHT22;378;48.844;9.156;2023-04-01T12:27:38;11.30;99.90
790;DHT22;378;48.844;9.156;2023-04-01T12:33:36;11.20;99.90
790;DHT22;378;48.844;9.156;2023-04-01T12:36:21;11.10;99.90
790;DHT22;378;48.844;9.156;2023-04-01T12:39:08;11.20;99.90
790;DHT22;378;48.844;9.156;2023-04-01T12:41:48;11.20;99.90
790;DHT22;378;48.844;9.156;2023-04-01T12:44:38;11.30;99.90
790;DHT22;378;48.844;9.156;2023-04-01T12:50:27;11.60;99.90
790;DHT22;378;48.844;9.156;2023-04-01T12:53:06;11.60;99.90
790;DHT22;378;48.844;9.156;2023-04-01T12:55:40;11.40;99.90
790;DHT22;378;48.844;9.156;2023-04-01T12:58:38;11.20;99.90
790;DHT22;378;48.844;9.156;2023-04-01T13:01:41;11.20;99.90
790;DHT22;378;48.844;9.156;2023-04-01T13:04:30;11.30;99.90
790;DHT22;378;48.844;9.156;2023-04-01T13:07:36;11.60;99.90
790;DHT22;378;48.844;9.156;2023-04-01T13:10:17;11.90;99.90
790;DHT22;378;48.844;9.156;2023-04-01T13:13:00;11.80;99.90
790;DHT22;378;48.844;9.156;2023-04-01T13:15:37;11.50;99.90
790;DHT22;378;48.844;9.156;2023-04-01T13:18:21;11.30;99.90
790;DHT22;378;48.844;9.156;2023-04-01T13:20:56;11.20;99.90
790;DHT22;378;48.844;9.156;2023-04-01T13:23:33;11.20;99.90
790;DHT22;378;48.844;9.156;2023-04-01T13:26:10;11.20;99.90
790;DHT22;378;48.844;9.156;2023-04-01T13:28:45;11.30;99.90
790;DHT22;378;48.844;9.156;2023-04-01T13:31:29;11.50;99.90
790;DHT22;378;48.844;9.156;2023-04-01T13:34:13;11.60;99.90
790;DHT22;378;48.844;9.156;2023-04-01T13:36:51;11.60;99.90
790;DHT22;378;48.844;9.156;2023-04-01T13:39:32;11.60;99.90
790;DHT22;378;48.844;9.156;2023-04-01T13:42:20;11.50;99.90
790;DHT22;378;48.844;9.156;2023-04-01T13:44:53;11.70;99.90
790;DHT22;378;48.844;9.156;2023-04-01T13:47:29;11.70;99.90
790;DHT22;378;48.844;9.156;2023-04-01T13:50:12;11.60;99.90
790;DHT22;378;48.844;9.156;2023-04-01T13:53:03;11.50;99.90
790;DHT22;378;48.844;9.156;2023-04-01T13:55:39;11.40;99.90
790;DHT22;378;48.844;9.156;2023-04-01T13:58:22;11.30;99.90
790;DHT22;378;48.844;9.156;2023-04-01T14:01:04;11.20;99.90
790;DHT22;378;48.844;9.156;2023-04-01T14:03:50;11.00;99.90
790;DHT22;378;48.844;9.156;2023-04-01T14:06:27;10.90;99.90
790;DHT22;378;48.844;9.156;2023-04-01T14:09:13;11.00;99.90
790;DHT22;378;48.844;9.156;2023-04-01T14:11:51;11.10;99.90
790;DHT22;378;48.844;9.156;2023-04-01T14:14:33;11.40;99.90
790;DHT22;378;48.844;9.156;2023-04-01T14:17:30;11.60;99.90
790;DHT22;378;48.844;9.156;2023-04-01T14:20:25;11.50;99.90
790;DHT22;378;48.844;9.156;2023-04-01T14:23:13;11.50;99.90
790;DHT22;378;48.844;9.156;2023-04-01T14:25:55;11.40;99.90
790;DHT22;378;48.844;9.156;2023-04-01T14:28:28;11.30;99.90
790;DHT22;378;48.844;9.156;2023-04-01T14:31:31;10.90;99.90
790;DHT22;378;48.844;9.156;2023-04-01T14:34:15;10.60;99.90
790;DHT22;378;48.844;9.156;2023-04-01T14:37:15;10.20;99.90
790;DHT22;378;48.844;9.156;2023-04-01T14:46:13;9.60;99.90
790;DHT22;378;48.844;9.156;2023-04-01T14:48:51;9.60;99.90
790;DHT22;378;48.844;9.156;2023-04-01T14:51:29;9.60;99.90
790;DHT22;378;48.844;9.156;2023-04-01T14:54:02;9.60;99.90
790;DHT22;378;48.844;9.156;2023-04-01T14:56:41;9.60;99.90
790;DHT22;378;48.844;9.156;2023-04-01T14:59:13;9.70;99.90
790;DHT22;378;48.844;9.156;2023-04-01T15:01:46;9.80;99.90
790;DHT22;378;48.844;9.156;2023-04-01T15:04:41;10.00;99.90
790;DHT22;378;48.844;9.156;2023-04-01T15:07:39;10.20;99.90
790;DHT22;378;48.844;9.156;2023-04-01T15:10:12;10.50;99.90
790;DHT22;378;48.844;9.156;2023-04-01T15:12:53;10.60;99.90
790;DHT22;378;48.844;9.156;2023-04-01T15:15:36;10.70;99.90
790;DHT22;378;48.844;9.156;2023-04-01T15:18:08;10.90;99.90
790;DHT22;378;48.844;9.156;2023-04-01T15:23:45;11.00;99.90
790;DHT22;378;48.844;9.156;2023-04-01T15:26:26;11.10;99.90
790;DHT22;378;48.844;9.156;2023-04-01T15:29:06;11.10;99.90
790;DHT22;378;48.844;9.156;2023-04-01T15:31:42;11.10;99.90
790;DHT22;378;48.844;9.156;2023-04-01T15:34:24;11.20;99.90
790;DHT22;378;48.844;9.156;2023-04-01T15:36:58;11.20;99.90
790;DHT22;378;48.844;9.156;2023-04-01T15:39:38;11.10;99.90
790;DHT22;378;48.844;9.156;2023-04-01T15:42:18;11.10;99.90
790;DHT22;378;48.844;9.156;2023-04-01T15:44:56;11.00;99.90
790;DHT22;378;48.844;9.156;2023-04-01T15:47:37;11.00;99.90
790;DHT22;378;48.844;9.156;2023-04-01T15:50:26;11.00;99.90
790;DHT22;378;48.844;9.156;2023-04-01T15:53:08;10.90;99.90
790;DHT22;378;48.844;9.156;2023-04-01T15:55:43;11.00;99.90
790;DHT22;378;48.844;9.156;2023-04-01T15:58:29;10.90;99.90
790;DHT22;378;48.844;9.156;2023-04-01T16:01:04;10.80;99.90
790;DHT22;378;48.844;9.156;2023-04-01T16:03:39;10.70;99.90
790;DHT22;378;48.844;9.156;2023-04-01T16:06:18;10.80;99.90
790;DHT22;378;48.844;9.156;2023-04-01T16:09:08;10.80;99.90
790;DHT22;378;48.844;9.156;2023-04-01T16:11:48;10.70;99.90
790;DHT22;378;48.844;9.156;2023-04-01T16:14:26;10.70;99.90
790;DHT22;378;48.844;9.156;2023-04-01T16:17:05;10.60;99.90
790;DHT22;378;48.844;9.156;2023-04-01T16:19:45;10.50;99.90
790;DHT22;378;48.844;9.156;2023-04-01T16:22:21;10.60;99.90
790;DHT22;378;48.844;9.156;2023-04-01T16:24:54;10.50;99.90
790;DHT22;378;48.844;9.156;2023-04-01T16:27:30;10.50;99.90
790;DHT22;378;48.844;9.156;2023-04-01T16:30:10;10.50;99.90
790;DHT22;378;48.844;9.156;2023-04-01T16:32:51;10.50;99.90
790;DHT22;378;48.844;9.156;2023-04-01T16:35:28;10.50;99.90
790;DHT22;378;48.844;9.156;2023-04-01T16:38:03;10.40;99.90
790;DHT22;378;48.844;9.156;2023-04-01T16:40:41;10.50;99.90
790;DHT22;378;48.844;9.156;2023-04-01T16:43:16;10.50;99.90
790;DHT22;378;48.844;9.156;2023-04-01T16:45:53;10.40;99.90
790;DHT22;378;48.844;9.156;2023-04-01T16:48:24;10.40;99.90
790;DHT22;378;48.844;9.156;2023-04-01T16:50:58;10.30;99.90
790;DHT22;378;48.844;9.156;2023-04-01T16:53:34;10.30;99.90
790;DHT22;378;48.844;9.156;2023-04-01T16:56:11;10.20;99.90
790;DHT22;378;48.844;9.156;2023-04-01T16:58:43;10.20;99.90
790;DHT22;378;48.844;9.156;2023-04-01T17:01:21;10.20;99.90
790;DHT22;378;48.844;9.156;2023-04-01T17:03:51;10.20;99.90
790;DHT22;378;48.844;9.156;2023-04-01T17:06:25;10.20;99.90
790;DHT22;378;48.844;9.156;2023-04-01T17:09:14;10.20;99.90
790;DHT22;378;48.844;9.156;2023-04-01T17:11:51;10.20;99.90
790;DHT22;378;48.844;9.156;2023-04-01T17:14:27;10.20;99.90
790;DHT22;378;48.844;9.156;2023-04-01T17:17:16;10.20;99.90
790;DHT22;378;48.844;9.156;2023-04-01T17:19:56;10.20;99.90
790;DHT22;378;48.844;9.156;2023-04-01T17:22:32;10.20;99.90
790;DHT22;378;48.844;9.156;2023-04-01T17:25:38;10.20;99.90
790;DHT22;378;48.844;9.156;2023-04-01T17:28:19;10.20;99.90
790;DHT22;378;48.844;9.156;2023-04-01T17:30:59;10.20;99.90
790;DHT22;378;48.844;9.156;2023-04-01T17:33:41;10.20;99.90
790;DHT22;378;48.844;9.156;2023-04-01T17:36:19;10.20;99.90
790;DHT22;378;48.844;9.156;2023-04-01T17:39:01;10.20;99.90
790;DHT22;378;48.844;9.156;2023-04-01T17:41:36;10.20;99.90
790;DHT22;378;48.844;9.156;2023-04-01T17:44:19;10.30;99.90
790;DHT22;378;48.844;9.156;2023-04-01T17:47:08;10.30;99.90
790;DHT22;378;48.844;9.156;2023-04-01T17:49:42;10.30;99.90
790;DHT22;378;48.844;9.156;2023-04-01T17:52:17;10.20;99.90
790;DHT22;378;48.844;9.156;2023-04-01T17:54:50;10.30;99.90
790;DHT22;378;48.844;9.156;2023-04-01T17:57:45;10.20;99.90
790;DHT22;378;48.844;9.156;2023-04-01T18:00:23;10.10;99.90
790;DHT22;378;48.844;9.156;2023-04-01T18:03:00;9.80;99.90
790;DHT22;378;48.844;9.156;2023-04-01T18:05:35;9.60;99.90
790;DHT22;378;48.844;9.156;2023-04-01T18:08:15;9.30;99.90
790;DHT22;378;48.844;9.156;2023-04-01T18:10:54;9.00;99.90
790;DHT22;378;48.844;9.156;2023-04-01T18:13:45;8.90;99.90
790;DHT22;378;48.844;9.156;2023-04-01T18:16:30;8.70;99.90
790;DHT22;378;48.844;9.156;2023-04-01T18:19:09;8.60;99.90
790;DHT22;378;48.844;9.156;2023-04-01T18:21:43;8.50;99.90
790;DHT22;378;48.844;9.156;2023-04-01T18:24:18;8.40;99.90
790;DHT22;378;48.844;9.156;2023-04-01T18:26:50;8.40;99.90
790;DHT22;378;48.844;9.156;2023-04-01T18:29:26;8.30;99.90
790;DHT22;378;48.844;9.156;2023-04-01T18:32:07;8.30;99.90
790;DHT22;378;48.844;9.156;2023-04-01T18:34:49;8.20;99.90
790;DHT22;378;48.844;9.156;2023-04-01T18:37:22;8.20;99.90
790;DHT22;378;48.844;9.156;2023-04-01T18:39:52;8.20;99.90
790;DHT22;378;48.844;9.156;2023-04-01T18:42:30;8.10;99.90
790;DHT22;378;48.844;9.156;2023-04-01T18:45:04;8.10;99.90
790;DHT22;378;48.844;9.156;2023-04-01T18:47:41;8.10;99.90
790;DHT22;378;48.844;9.156;2023-04-01T18:50:21;8.10;99.90
790;DHT22;378;48.844;9.156;2023-04-01T18:52:53;8.10;99.90
790;DHT22;378;48.844;9.156;2023-04-01T18:55:30;8.10;99.90
790;DHT22;378;48.844;9.156;2023-04-01T18:58:21;8.00;99.90
790;DHT22;378;48.844;9.156;2023-04-01T19:01:01;8.10;99.90
790;DHT22;378;48.844;9.156;2023-04-01T19:03:34;8.30;99.90